createdAt,value
2023-03-21T00:00:43.763Z,8.80
2023-03-21T00:03:10.591Z,8.54
2023-03-21T00:05:42.497Z,8.84
2023-03-21T00:08:09.787Z,8.91
2023-03-21T00:10:43.786Z,8.74
2023-03-21T00:13:15.814Z,8.97
2023-03-21T00:18:43.027Z,8.86
2023-03-21T00:24:00.889Z,8.83
2023-03-21T00:26:28.162Z,8.81
2023-03-21T00:28:54.887Z,8.79
2023-03-21T00:31:21.726Z,8.87
2023-03-21T00:33:48.618Z,8.82
2023-03-21T00:36:16.200Z,9.09
2023-03-21T00:38:43.161Z,8.83
2023-03-21T00:41:23.270Z,9.11
2023-03-21T00:43:55.784Z,8.96
2023-03-21T00:46:25.121Z,9.02
2023-03-21T00:48:52.253Z,8.82
2023-03-21T00:51:26.160Z,8.70
2023-03-21T00:53:57.661Z,8.75
2023-03-21T00:56:24.693Z,8.91
2023-03-21T00:58:51.418Z,8.96
2023-03-21T01:01:18.841Z,9.03
2023-03-21T01:03:48.286Z,9.09
2023-03-21T01:06:19.713Z,8.77
2023-03-21T01:08:52.732Z,9.15
2023-03-21T01:11:23.137Z,9.11
2023-03-21T01:13:56.215Z,9.07
2023-03-21T01:16:26.474Z,8.87
2023-03-21T01:18:53.296Z,8.87
2023-03-21T01:21:20.065Z,9.01
2023-03-21T01:23:46.921Z,8.97
2023-03-21T01:26:13.854Z,8.86
2023-03-21T01:28:42.168Z,9.17
2023-03-21T01:31:11.574Z,8.77
2023-03-21T01:33:38.792Z,8.92
2023-03-21T01:36:13.053Z,9.20
2023-03-21T01:38:41.716Z,9.30
2023-03-21T01:41:41.655Z,9.21
2023-03-21T01:44:19.964Z,9.06
2023-03-21T01:47:03.977Z,9.29
2023-03-21T01:49:41.072Z,9.13
2023-03-21T01:52:21.003Z,9.45
2023-03-21T01:54:52.693Z,9.04
2023-03-21T01:57:41.243Z,9.26
2023-03-21T02:00:13.065Z,9.34
2023-03-21T02:02:58.252Z,9.10
2023-03-21T02:05:50.939Z,9.44
2023-03-21T02:08:18.388Z,9.21
2023-03-21T02:10:50.596Z,8.77
2023-03-21T02:13:17.715Z,9.25
2023-03-21T02:15:58.252Z,9.21
2023-03-21T02:18:28.197Z,9.23
2023-03-21T02:21:13.529Z,9.18
2023-03-21T02:24:10.740Z,9.10
2023-03-21T02:27:04.101Z,8.71
2023-03-21T02:29:43.341Z,9.21
2023-03-21T02:32:20.237Z,9.24
2023-03-21T02:35:00.939Z,9.36
2023-03-21T02:37:40.307Z,9.15
2023-03-21T02:40:39.814Z,9.33
2023-03-21T02:43:23.506Z,9.12
2023-03-21T02:45:57.615Z,9.36
2023-03-21T02:49:07.074Z,9.11
2023-03-21T02:51:35.985Z,9.08
2023-03-21T02:54:29.975Z,9.41
2023-03-21T02:56:58.329Z,9.07
2023-03-21T02:59:27.132Z,9.30
2023-03-21T03:01:56.389Z,9.24
2023-03-21T03:04:27.513Z,9.41
2023-03-21T03:07:15.818Z,9.35
2023-03-21T03:09:59.956Z,9.37
2023-03-21T03:13:00.610Z,9.11
2023-03-21T03:15:51.881Z,9.44
2023-03-21T03:18:33.762Z,9.46
2023-03-21T03:21:11.187Z,9.53
2023-03-21T03:24:07.017Z,9.23
2023-03-21T03:26:37.649Z,9.40
2023-03-21T03:29:08.949Z,9.19
2023-03-21T03:31:46.432Z,9.60
2023-03-21T03:34:20.730Z,9.53
2023-03-21T03:36:56.321Z,9.33
2023-03-21T03:39:33.854Z,9.27
2023-03-21T03:42:21.478Z,9.58
2023-03-21T03:44:52.824Z,9.26
2023-03-21T03:47:56.363Z,9.13
2023-03-21T03:50:41.637Z,9.56
2023-03-21T03:53:18.595Z,9.65
2023-03-21T03:55:46.222Z,9.40
2023-03-21T03:58:22.915Z,9.37
2023-03-21T04:00:52.392Z,9.59
2023-03-21T04:03:19.194Z,9.17
2023-03-21T04:05:48.641Z,9.54
2023-03-21T04:08:16.505Z,9.47
2023-03-21T04:10:43.922Z,9.32
2023-03-21T04:13:11.270Z,9.57
2023-03-21T04:15:38.220Z,9.23
2023-03-21T04:18:05.040Z,9.66
2023-03-21T04:20:36.974Z,9.52
2023-03-21T04:23:05.602Z,9.51
2023-03-21T04:25:38.620Z,9.76
2023-03-21T04:28:07.268Z,9.68
2023-03-21T04:30:34.317Z,9.54
2023-03-21T04:33:01.341Z,9.60
2023-03-21T04:35:28.682Z,9.55
2023-03-21T04:37:55.964Z,9.71
2023-03-21T04:40:24.808Z,9.72
2023-03-21T04:42:51.704Z,9.75
2023-03-21T04:45:18.385Z,9.61
2023-03-21T04:47:45.550Z,9.72
2023-03-21T04:50:13.850Z,9.48
2023-03-21T04:52:40.745Z,9.33
2023-03-21T04:55:10.635Z,9.62
2023-03-21T04:57:38.594Z,9.50
2023-03-21T05:00:10.795Z,9.45
2023-03-21T05:02:38.851Z,9.79
2023-03-21T05:05:07.068Z,9.48
2023-03-21T05:07:33.875Z,9.43
2023-03-21T05:10:02.409Z,9.54
2023-03-21T05:12:29.518Z,9.55
2023-03-21T05:14:56.355Z,9.59
2023-03-21T05:17:28.577Z,9.81
2023-03-21T05:19:56.645Z,9.75
2023-03-21T05:22:26.930Z,9.68
2023-03-21T05:24:55.421Z,9.62
2023-03-21T05:27:35.837Z,9.75
2023-03-21T05:30:11.773Z,9.47
2023-03-21T05:32:38.948Z,9.58
2023-03-21T05:35:06.420Z,9.48
2023-03-21T05:37:33.231Z,9.80
2023-03-21T05:40:00.059Z,9.47
2023-03-21T05:42:26.861Z,9.56
2023-03-21T05:44:53.737Z,9.73
2023-03-21T05:47:20.612Z,9.74
2023-03-21T05:49:47.470Z,9.65
2023-03-21T05:52:14.269Z,9.66
2023-03-21T05:54:41.184Z,9.40
2023-03-21T05:57:08.506Z,9.96
2023-03-21T05:59:35.491Z,9.48
2023-03-21T06:02:02.371Z,9.43
2023-03-21T06:04:29.349Z,9.69
2023-03-21T06:06:57.885Z,9.77
2023-03-21T06:09:26.195Z,9.91
2023-03-21T06:11:55.707Z,9.58
2023-03-21T06:14:23.984Z,9.65
2023-03-21T06:16:51.206Z,9.54
2023-03-21T06:19:17.964Z,9.42
2023-03-21T06:21:44.730Z,9.63
2023-03-21T06:24:11.561Z,9.48
2023-03-21T06:26:38.428Z,9.66
2023-03-21T06:29:05.447Z,9.89
2023-03-21T06:31:32.254Z,9.69
2023-03-21T06:33:58.988Z,9.90
2023-03-21T06:36:25.804Z,9.81
2023-03-21T06:38:52.650Z,10.08
2023-03-21T06:41:19.493Z,9.69
2023-03-21T06:43:46.403Z,9.81
2023-03-21T06:46:13.115Z,9.72
2023-03-21T06:48:44.541Z,10.08
2023-03-21T06:51:12.874Z,10.04
2023-03-21T06:53:39.836Z,9.84
2023-03-21T06:56:06.856Z,10.09
2023-03-21T06:58:33.562Z,10.02
2023-03-21T07:01:01.839Z,10.07
2023-03-21T07:03:29.253Z,10.11
2023-03-21T07:05:56.247Z,10.13
2023-03-21T07:08:23.032Z,10.15
2023-03-21T07:10:49.937Z,10.24
2023-03-21T07:13:16.787Z,10.34
2023-03-21T07:15:43.515Z,10.10
2023-03-21T07:18:10.493Z,10.20
2023-03-21T07:20:38.243Z,10.19
2023-03-21T07:23:05.854Z,10.23
2023-03-21T07:25:32.787Z,10.41
2023-03-21T07:27:59.560Z,10.16
2023-03-21T07:30:26.389Z,10.38
2023-03-21T07:32:53.544Z,10.41
2023-03-21T07:35:20.533Z,10.70
2023-03-21T07:37:47.243Z,10.52
2023-03-21T07:40:14.068Z,10.26
2023-03-21T07:42:41.538Z,10.71
2023-03-21T07:45:09.815Z,10.55
2023-03-21T07:47:37.048Z,10.65
2023-03-21T07:50:04.656Z,10.42
2023-03-21T07:52:32.039Z,10.78
2023-03-21T07:54:59.125Z,10.50
2023-03-21T07:57:26.236Z,10.51
2023-03-21T07:59:53.006Z,10.62
2023-03-21T08:02:19.774Z,10.54
2023-03-21T08:04:46.892Z,10.41
2023-03-21T08:07:13.979Z,10.76
2023-03-21T08:09:40.933Z,10.34
2023-03-21T08:12:10.809Z,10.59
2023-03-21T08:14:37.900Z,10.76
2023-03-21T08:17:05.898Z,11.07
2023-03-21T08:19:32.829Z,11.40
2023-03-21T08:21:59.998Z,11.68
2023-03-21T08:24:28.285Z,12.22
2023-03-21T08:26:54.992Z,12.59
2023-03-21T08:29:21.993Z,12.80
2023-03-21T08:31:48.917Z,12.86
2023-03-21T08:34:15.658Z,13.07
2023-03-21T08:36:42.330Z,12.85
2023-03-21T08:39:09.007Z,13.31
2023-03-21T08:41:37.486Z,13.83
2023-03-21T08:44:06.465Z,13.81
2023-03-21T08:46:33.780Z,13.24
2023-03-21T08:49:00.497Z,12.77
2023-03-21T08:51:27.375Z,12.92
2023-03-21T08:53:54.097Z,12.72
2023-03-21T08:56:20.770Z,12.80
2023-03-21T08:58:47.568Z,12.89
2023-03-21T09:01:15.947Z,13.23
2023-03-21T09:03:43.639Z,13.85
2023-03-21T09:06:14.307Z,14.40
2023-03-21T09:08:42.158Z,14.68
2023-03-21T09:11:10.444Z,14.35
2023-03-21T09:13:37.242Z,14.23
2023-03-21T09:16:05.356Z,14.73
2023-03-21T09:18:49.000Z,14.58
2023-03-21T09:21:18.550Z,14.47
2023-03-21T09:23:47.122Z,14.26
2023-03-21T09:26:14.001Z,14.06
2023-03-21T09:28:40.971Z,14.43
2023-03-21T09:31:12.368Z,14.21
2023-03-21T09:33:42.721Z,14.49
2023-03-21T09:36:14.512Z,14.36
2023-03-21T09:38:45.139Z,13.88
2023-03-21T09:41:17.758Z,13.40
2023-03-21T09:44:23.008Z,13.67
2023-03-21T09:46:58.437Z,13.60
2023-03-21T09:49:32.984Z,13.82
2023-03-21T09:52:03.675Z,13.77
2023-03-21T09:54:33.933Z,13.91
2023-03-21T09:57:24.948Z,14.19
2023-03-21T09:59:54.955Z,13.83
2023-03-21T10:02:47.262Z,13.91
2023-03-21T10:05:27.194Z,14.10
2023-03-21T10:08:09.008Z,14.31
2023-03-21T10:10:46.518Z,13.94
2023-03-21T10:13:35.494Z,14.16
2023-03-21T10:16:14.265Z,13.42
2023-03-21T10:18:42.989Z,13.56
2023-03-21T10:21:37.365Z,13.88
2023-03-21T10:24:04.101Z,13.96
2023-03-21T10:26:31.066Z,13.47
2023-03-21T10:29:03.484Z,13.85
2023-03-21T10:31:31.236Z,14.05
2023-03-21T10:34:02.644Z,13.75
2023-03-21T10:36:32.929Z,13.99
2023-03-21T10:39:05.222Z,13.66
2023-03-21T10:41:32.678Z,13.71
2023-03-21T10:44:11.936Z,13.81
2023-03-21T10:46:38.815Z,13.77
2023-03-21T10:49:08.203Z,13.85
2023-03-21T10:51:37.961Z,14.03
2023-03-21T10:54:13.666Z,14.20
2023-03-21T10:56:53.549Z,14.13
2023-03-21T10:59:23.425Z,13.90
2023-03-21T11:01:52.458Z,13.41
2023-03-21T11:04:27.949Z,14.33
2023-03-21T11:06:57.732Z,13.87
2023-03-21T11:09:27.959Z,13.86
2023-03-21T11:12:10.576Z,14.27
2023-03-21T11:14:41.757Z,14.11
2023-03-21T11:17:23.853Z,14.11
2023-03-21T11:19:58.508Z,14.19
2023-03-21T11:22:30.521Z,14.39
2023-03-21T11:25:01.097Z,14.08
2023-03-21T11:27:30.541Z,14.01
2023-03-21T11:30:00.046Z,14.34
2023-03-21T11:32:38.620Z,14.26
2023-03-21T11:35:19.882Z,14.12
2023-03-21T11:37:53.295Z,14.02
2023-03-21T11:40:20.176Z,14.40
2023-03-21T11:42:53.001Z,14.71
2023-03-21T11:45:24.072Z,14.88
2023-03-21T11:47:54.005Z,15.07
2023-03-21T11:50:42.857Z,15.19
2023-03-21T11:53:15.553Z,15.53
2023-03-21T11:56:02.010Z,15.17
2023-03-21T11:58:38.584Z,15.27
2023-03-21T12:01:29.946Z,15.45
2023-03-21T12:04:27.409Z,15.88
2023-03-21T12:07:00.763Z,15.49
2023-03-21T12:09:27.428Z,15.40
2023-03-21T12:12:37.919Z,15.51
2023-03-21T12:15:06.223Z,15.73
2023-03-21T12:17:57.760Z,15.41
2023-03-21T12:20:52.793Z,14.88
2023-03-21T12:23:25.629Z,14.90
2023-03-21T12:26:10.658Z,14.95
2023-03-21T12:28:50.330Z,14.99
2023-03-21T12:31:45.217Z,15.30
2023-03-21T12:34:19.831Z,15.33
2023-03-21T12:37:08.325Z,15.34
2023-03-21T12:39:40.528Z,14.94
2023-03-21T12:42:11.835Z,15.02
2023-03-21T12:44:44.615Z,15.17
2023-03-21T12:47:17.909Z,15.31
2023-03-21T12:49:55.436Z,15.29
2023-03-21T12:52:27.455Z,15.72
2023-03-21T12:55:01.976Z,15.22
2023-03-21T12:58:04.453Z,16.12
2023-03-21T13:00:49.882Z,16.02
2023-03-21T13:03:19.597Z,16.21
2023-03-21T13:05:58.410Z,15.90
2023-03-21T13:08:46.721Z,15.36
2023-03-21T13:11:17.972Z,15.31
2023-03-21T13:14:00.178Z,15.44
2023-03-21T13:16:29.523Z,15.05
2023-03-21T13:19:14.540Z,15.85
2023-03-21T13:21:44.146Z,15.45
2023-03-21T13:24:29.140Z,15.54
2023-03-21T13:27:02.580Z,16.32
2023-03-21T13:29:33.470Z,15.56
2023-03-21T13:32:31.284Z,15.64
2023-03-21T13:35:30.061Z,15.76
2023-03-21T13:38:17.420Z,14.79
2023-03-21T13:40:48.682Z,15.00
2023-03-21T13:43:43.311Z,14.73
2023-03-21T13:46:26.802Z,14.95
2023-03-21T13:48:58.752Z,14.57
2023-03-21T13:51:29.303Z,14.39
2023-03-21T13:54:04.565Z,13.91
2023-03-21T13:56:52.713Z,14.07
2023-03-21T13:59:38.130Z,14.44
2023-03-21T14:02:23.333Z,14.66
2023-03-21T14:05:21.465Z,14.44
2023-03-21T14:07:52.847Z,14.02
2023-03-21T14:10:31.230Z,14.23
2023-03-21T14:12:59.112Z,14.20
2023-03-21T14:15:56.428Z,14.68
2023-03-21T14:21:24.946Z,14.70
2023-03-21T14:24:04.202Z,14.87
2023-03-21T14:26:46.004Z,14.49
2023-03-21T14:29:35.061Z,14.72
2023-03-21T14:32:02.852Z,14.33
2023-03-21T14:34:33.500Z,14.35
2023-03-21T14:37:00.437Z,14.23
2023-03-21T14:39:30.914Z,14.27
2023-03-21T14:42:05.155Z,13.86
2023-03-21T14:44:56.201Z,13.91
2023-03-21T14:47:26.411Z,14.01
2023-03-21T14:49:53.752Z,14.12
2023-03-21T14:52:31.809Z,14.54
2023-03-21T14:55:00.105Z,13.80
2023-03-21T14:57:31.061Z,14.13
2023-03-21T15:00:02.059Z,14.10
2023-03-21T15:02:34.629Z,13.18
2023-03-21T15:05:38.004Z,13.94
2023-03-21T15:08:15.621Z,14.01
2023-03-21T15:11:05.954Z,13.84
2023-03-21T15:13:34.654Z,14.21
2023-03-21T15:16:01.595Z,14.21
2023-03-21T15:18:33.569Z,14.22
2023-03-21T15:21:10.569Z,14.27
2023-03-21T15:23:42.477Z,14.30
2023-03-21T15:26:17.366Z,14.15
2023-03-21T15:28:46.995Z,14.27
2023-03-21T15:31:20.561Z,14.21
2023-03-21T15:33:49.199Z,14.07
2023-03-21T15:36:22.338Z,14.12
2023-03-21T15:38:50.015Z,13.99
2023-03-21T15:41:19.455Z,14.08
2023-03-21T15:44:01.735Z,14.21
2023-03-21T15:46:45.511Z,14.34
2023-03-21T15:49:15.627Z,14.15
2023-03-21T15:51:46.297Z,14.02
2023-03-21T15:54:41.291Z,14.32
2023-03-21T15:57:21.780Z,14.28
2023-03-21T15:59:49.127Z,14.15
2023-03-21T16:02:24.634Z,13.82
2023-03-21T16:04:59.852Z,14.20
2023-03-21T16:07:27.015Z,13.86
2023-03-21T16:10:00.510Z,13.94
2023-03-21T16:12:27.765Z,13.39
2023-03-21T16:14:55.636Z,13.11
2023-03-21T16:17:39.813Z,13.54
2023-03-21T16:20:35.763Z,13.61
2023-03-21T16:23:02.984Z,13.56
2023-03-21T16:25:30.687Z,13.85
2023-03-21T16:27:57.493Z,13.39
2023-03-21T16:30:24.883Z,13.13
2023-03-21T16:32:51.999Z,13.17
2023-03-21T16:35:18.850Z,13.18
2023-03-21T16:37:48.437Z,13.17
2023-03-21T16:40:24.304Z,13.29
2023-03-21T16:42:51.127Z,13.26
2023-03-21T16:45:17.951Z,13.12
2023-03-21T16:47:45.533Z,13.02
2023-03-21T16:50:28.523Z,13.04
2023-03-21T16:52:56.344Z,12.95
2023-03-21T16:55:23.404Z,13.00
2023-03-21T16:57:53.876Z,12.66
2023-03-21T17:00:24.383Z,12.72
2023-03-21T17:02:53.556Z,12.87
2023-03-21T17:05:27.749Z,12.93
2023-03-21T17:07:55.044Z,13.26
2023-03-21T17:10:26.610Z,13.08
2023-03-21T17:12:53.602Z,12.88
2023-03-21T17:15:20.972Z,13.02
2023-03-21T17:17:50.157Z,12.82
2023-03-21T17:20:21.495Z,12.99
2023-03-21T17:22:48.940Z,13.24
2023-03-21T17:25:17.454Z,12.98
2023-03-21T17:27:44.910Z,13.01
2023-03-21T17:30:22.725Z,13.09
2023-03-21T17:32:50.958Z,12.87
2023-03-21T17:35:18.179Z,12.65
2023-03-21T17:37:50.482Z,12.56
2023-03-21T17:40:23.017Z,12.52
2023-03-21T17:42:51.623Z,12.09
2023-03-21T17:45:19.383Z,12.17
2023-03-21T17:47:46.887Z,12.30
2023-03-21T17:50:21.165Z,12.30
2023-03-21T17:52:50.640Z,12.19
2023-03-21T17:55:19.710Z,11.99
2023-03-21T17:57:47.111Z,11.66
2023-03-21T18:00:25.881Z,12.13
2023-03-21T18:02:53.338Z,11.89
2023-03-21T18:05:21.634Z,12.12
2023-03-21T18:10:37.157Z,12.23
2023-03-21T18:13:04.024Z,12.40
2023-03-21T18:15:31.215Z,12.21
2023-03-21T18:17:58.559Z,12.35
2023-03-21T18:20:49.870Z,12.13
2023-03-21T18:23:15.507Z,12.20
2023-03-21T18:25:42.252Z,12.28
2023-03-21T18:28:12.009Z,12.22
2023-03-21T18:33:27.555Z,12.22
2023-03-21T18:35:59.100Z,12.04
2023-03-21T18:38:27.850Z,11.66
2023-03-21T18:40:55.490Z,11.75
2023-03-21T18:46:09.348Z,11.87
2023-03-21T18:48:36.724Z,11.67
2023-03-21T18:51:04.214Z,11.78
2023-03-21T18:53:31.102Z,11.84
2023-03-21T18:55:57.903Z,11.35
2023-03-21T18:58:25.653Z,11.31
2023-03-21T19:00:54.038Z,11.41
2023-03-21T19:03:35.211Z,11.55
2023-03-21T19:06:04.159Z,11.05
2023-03-21T19:08:31.273Z,11.35
2023-03-21T19:11:03.333Z,11.09
2023-03-21T19:13:33.676Z,11.06
2023-03-21T19:16:02.430Z,11.08
2023-03-21T19:18:53.018Z,11.06
2023-03-21T19:21:19.385Z,11.29
2023-03-21T19:26:33.446Z,11.16
2023-03-21T19:29:00.115Z,11.04
2023-03-21T19:31:27.303Z,11.09
2023-03-21T19:33:54.130Z,11.00
2023-03-21T19:36:22.676Z,10.88
2023-03-21T19:38:50.636Z,11.17
2023-03-21T19:41:18.297Z,11.09
2023-03-21T19:43:53.623Z,11.15
2023-03-21T19:46:24.972Z,10.96
2023-03-21T19:48:56.122Z,11.04
2023-03-21T19:51:28.823Z,11.11
2023-03-21T19:53:57.626Z,11.05
2023-03-21T19:56:26.984Z,10.79
2023-03-21T19:58:55.327Z,10.57
2023-03-21T20:01:23.113Z,10.69
2023-03-21T20:03:50.054Z,10.70
2023-03-21T20:06:16.865Z,10.56
2023-03-21T20:09:13.729Z,10.78
2023-03-21T20:11:30.341Z,10.64
2023-03-21T20:13:58.485Z,10.68
2023-03-21T20:16:25.373Z,10.64
2023-03-21T20:18:52.648Z,10.47
2023-03-21T20:21:25.428Z,10.57
2023-03-21T20:23:52.413Z,10.81
2023-03-21T20:26:19.592Z,10.51
2023-03-21T20:28:56.461Z,10.88
2023-03-21T20:31:30.850Z,10.85
2023-03-21T20:33:57.671Z,10.45
2023-03-21T20:36:38.795Z,10.53
2023-03-21T20:39:06.848Z,10.56
2023-03-21T20:41:33.655Z,10.25
2023-03-21T20:46:49.940Z,10.78
2023-03-21T20:49:16.854Z,10.52
2023-03-21T20:54:31.632Z,10.80
2023-03-21T20:56:58.325Z,10.72
2023-03-21T20:59:27.915Z,10.48
2023-03-21T21:01:57.554Z,10.37
2023-03-21T21:04:44.195Z,10.55
2023-03-21T21:07:15.950Z,10.50
2023-03-21T21:09:44.746Z,10.43
2023-03-21T21:12:14.009Z,10.60
2023-03-21T21:14:41.860Z,10.82
2023-03-21T21:19:56.897Z,10.41
2023-03-21T21:22:23.658Z,10.34
2023-03-21T21:24:50.353Z,9.96
2023-03-21T21:27:17.121Z,9.93
2023-03-21T21:29:47.767Z,9.88
2023-03-21T21:32:17.120Z,9.72
2023-03-21T21:34:44.106Z,9.95
2023-03-21T21:37:10.786Z,9.87
2023-03-21T21:39:38.693Z,10.18
2023-03-21T21:42:05.856Z,10.05
2023-03-21T21:44:32.590Z,10.14
2023-03-21T21:46:59.515Z,10.06
2023-03-21T21:49:27.101Z,9.87
2023-03-21T21:51:53.867Z,10.22
2023-03-21T21:54:20.581Z,9.76
2023-03-21T21:56:54.295Z,10.26
2023-03-21T21:59:22.388Z,10.11
2023-03-21T22:01:51.433Z,9.98
2023-03-21T22:04:27.944Z,10.27
2023-03-21T22:06:57.731Z,9.94
2023-03-21T22:09:24.421Z,9.94
2023-03-21T22:11:51.482Z,9.81
2023-03-21T22:14:18.191Z,9.85
2023-03-21T22:16:46.850Z,10.22
2023-03-21T22:19:13.784Z,10.15
2023-03-21T22:21:40.742Z,10.09
2023-03-21T22:24:07.584Z,10.13
2023-03-21T22:26:34.413Z,9.77
2023-03-21T22:29:01.817Z,9.75
2023-03-21T22:31:28.724Z,9.66
2023-03-21T22:33:55.543Z,9.81
2023-03-21T22:36:22.201Z,9.74
2023-03-21T22:38:48.885Z,9.60
2023-03-21T22:41:15.643Z,9.86
2023-03-21T22:43:42.364Z,9.56
2023-03-21T22:46:09.140Z,9.61
2023-03-21T22:48:36.057Z,9.44
2023-03-21T22:51:02.780Z,9.47
2023-03-21T22:53:29.645Z,9.75
2023-03-21T22:55:56.384Z,9.39
2023-03-21T22:58:23.677Z,9.56
2023-03-21T23:00:50.504Z,9.15
2023-03-21T23:03:17.457Z,9.53
2023-03-21T23:05:45.768Z,9.52
2023-03-21T23:08:13.452Z,9.25
2023-03-21T23:10:43.917Z,9.35
2023-03-21T23:13:10.968Z,9.32
2023-03-21T23:15:41.221Z,9.38
2023-03-21T23:18:08.123Z,9.03
2023-03-21T23:20:35.108Z,9.11
2023-03-21T23:23:02.159Z,9.32
2023-03-21T23:25:34.179Z,9.22
2023-03-21T23:28:01.036Z,9.18
2023-03-21T23:30:27.780Z,8.99
2023-03-21T23:32:54.477Z,9.17
2023-03-21T23:35:21.431Z,9.29
2023-03-21T23:37:50.246Z,8.84
2023-03-21T23:40:17.037Z,8.76
2023-03-21T23:42:43.786Z,9.03
2023-03-21T23:45:11.146Z,9.20
2023-03-21T23:47:39.338Z,8.92
2023-03-21T23:50:07.926Z,8.84
2023-03-21T23:52:34.748Z,9.09
2023-03-21T23:55:01.449Z,8.99
2023-03-21T23:57:28.198Z,8.92
2023-03-21T23:59:55.907Z,8.95
